createdAt,value
2023-04-18T00:00:48.806Z,62.97
2023-04-18T00:01:48.907Z,62.91
2023-04-18T00:02:48.931Z,63.05
2023-04-18T00:03:49.221Z,63.14
2023-04-18T00:04:49.135Z,63.23
2023-04-18T00:05:48.982Z,63.34
2023-04-18T00:06:49.043Z,63.34
2023-04-18T00:07:49.055Z,63.36
2023-04-18T00:08:49.093Z,63.23
2023-04-18T00:09:49.129Z,63.24
2023-04-18T00:10:49.167Z,63.45
2023-04-18T00:11:49.196Z,63.47
2023-04-18T00:12:49.231Z,63.36
2023-04-18T00:13:49.263Z,63.26
2023-04-18T00:14:49.292Z,63.39
2023-04-18T00:15:49.304Z,63.37
2023-04-18T00:16:49.397Z,63.46
2023-04-18T00:17:49.444Z,63.61
2023-04-18T00:18:49.443Z,63.78
2023-04-18T00:19:49.539Z,63.76
2023-04-18T00:20:49.589Z,63.81
2023-04-18T00:21:49.669Z,63.84
2023-04-18T00:22:49.700Z,63.82
2023-04-18T00:23:49.763Z,63.89
2023-04-18T00:24:49.837Z,63.77
2023-04-18T00:25:49.906Z,63.70
2023-04-18T00:26:50.009Z,63.66
2023-04-18T00:27:50.067Z,63.67
2023-04-18T00:28:50.118Z,63.64
2023-04-18T00:29:50.181Z,63.54
2023-04-18T00:30:50.198Z,63.48
2023-04-18T00:31:50.155Z,63.29
2023-04-18T00:32:50.209Z,63.10
2023-04-18T00:33:50.235Z,63.05
2023-04-18T00:34:50.216Z,63.05
2023-04-18T00:35:50.260Z,62.97
2023-04-18T00:36:50.222Z,62.85
2023-04-18T00:37:50.226Z,62.59
2023-04-18T00:38:50.283Z,62.70
2023-04-18T00:39:50.303Z,62.81
2023-04-18T00:40:50.372Z,62.76
2023-04-18T00:41:50.533Z,62.72
2023-04-18T00:42:50.553Z,63.02
2023-04-18T00:43:50.518Z,63.62
2023-04-18T00:44:50.597Z,63.86
2023-04-18T00:45:50.715Z,64.13
2023-04-18T00:46:50.697Z,64.54
2023-04-18T00:47:50.923Z,64.52
2023-04-18T00:48:51.651Z,64.55
2023-04-18T00:49:51.163Z,64.74
2023-04-18T00:50:50.945Z,65.03
2023-04-18T00:51:51.045Z,64.97
2023-04-18T00:52:51.105Z,64.92
2023-04-18T00:53:51.181Z,64.80
2023-04-18T00:54:51.247Z,64.71
2023-04-18T00:55:51.295Z,64.96
2023-04-18T00:56:51.327Z,64.94
2023-04-18T00:57:51.384Z,64.83
2023-04-18T00:58:51.457Z,64.86
2023-04-18T00:59:51.530Z,64.91
2023-04-18T01:00:51.632Z,64.98
2023-04-18T01:01:51.747Z,64.96
2023-04-18T01:02:51.835Z,65.04
2023-04-18T01:03:51.922Z,65.02
2023-04-18T01:04:51.847Z,65.13
2023-04-18T01:05:51.879Z,65.10
2023-04-18T01:06:51.954Z,65.18
2023-04-18T01:07:52.023Z,65.31
2023-04-18T01:08:52.072Z,65.51
2023-04-18T01:09:52.120Z,65.50
2023-04-18T01:10:52.242Z,65.54
2023-04-18T01:11:52.322Z,65.34
2023-04-18T01:12:52.392Z,65.37
2023-04-18T01:13:52.456Z,65.52
2023-04-18T01:14:52.488Z,65.31
2023-04-18T01:15:52.815Z,65.26
2023-04-18T01:16:52.648Z,65.18
2023-04-18T01:17:52.777Z,65.13
2023-04-18T01:18:52.731Z,64.95
2023-04-18T01:19:52.795Z,64.88
2023-04-18T01:20:52.881Z,65.27
2023-04-18T01:21:52.995Z,65.40
2023-04-18T01:22:52.996Z,65.33
2023-04-18T01:23:53.660Z,65.10
2023-04-18T01:24:53.649Z,64.94
2023-04-18T01:25:53.053Z,64.73
2023-04-18T01:26:53.075Z,64.60
2023-04-18T01:27:53.126Z,64.42
2023-04-18T01:28:53.163Z,64.30
2023-04-18T01:29:53.211Z,64.28
2023-04-18T01:30:53.292Z,64.22
2023-04-18T01:31:53.367Z,64.10
2023-04-18T01:32:53.512Z,63.99
2023-04-18T01:33:53.537Z,63.96
2023-04-18T01:34:53.571Z,63.90
2023-04-18T01:35:53.628Z,63.81
2023-04-18T01:36:53.653Z,63.88
2023-04-18T01:37:53.712Z,63.78
2023-04-18T01:38:53.732Z,64.00
2023-04-18T01:39:53.785Z,64.03
2023-04-18T01:40:53.814Z,64.00
2023-04-18T01:41:53.844Z,64.09
2023-04-18T01:42:53.892Z,64.12
2023-04-18T01:43:53.881Z,64.12
2023-04-18T01:44:53.916Z,64.04
2023-04-18T01:45:53.957Z,64.19
2023-04-18T01:46:54.065Z,64.30
2023-04-18T01:47:54.100Z,64.41
2023-04-18T01:48:54.065Z,64.66
2023-04-18T01:49:54.100Z,64.51
2023-04-18T01:50:54.146Z,64.61
2023-04-18T01:51:54.230Z,64.66
2023-04-18T01:52:54.305Z,64.78
2023-04-18T01:53:54.363Z,64.80
2023-04-18T01:54:54.471Z,64.85
2023-04-18T01:55:54.519Z,64.78
2023-04-18T01:56:54.588Z,64.83
2023-04-18T01:57:54.656Z,64.80
2023-04-18T01:58:55.645Z,64.75
2023-04-18T01:59:54.779Z,64.61
2023-04-18T02:00:54.866Z,64.54
2023-04-18T02:01:54.989Z,64.40
2023-04-18T02:02:54.978Z,64.34
2023-04-18T02:03:55.269Z,64.18
2023-04-18T02:04:54.961Z,64.16
2023-04-18T02:05:54.991Z,64.27
2023-04-18T02:06:55.014Z,64.26
2023-04-18T02:07:55.061Z,64.22
2023-04-18T02:08:55.099Z,64.17
2023-04-18T02:09:55.161Z,63.89
2023-04-18T02:10:55.197Z,63.96
2023-04-18T02:11:55.245Z,63.90
2023-04-18T02:12:55.266Z,63.67
2023-04-18T02:13:55.328Z,63.60
2023-04-18T02:14:55.371Z,63.94
2023-04-18T02:15:55.403Z,64.48
2023-04-18T02:16:55.489Z,64.72
2023-04-18T02:17:55.524Z,64.71
2023-04-18T02:18:55.540Z,64.68
2023-04-18T02:19:55.583Z,64.68
2023-04-18T02:20:55.674Z,64.62
2023-04-18T02:21:55.704Z,64.70
2023-04-18T02:22:55.779Z,64.96
2023-04-18T02:23:55.853Z,65.18
2023-04-18T02:24:55.910Z,65.15
2023-04-18T02:25:56.027Z,64.98
2023-04-18T02:26:56.022Z,64.78
2023-04-18T02:27:56.086Z,64.64
2023-04-18T02:28:56.106Z,64.58
2023-04-18T02:29:56.174Z,64.50
2023-04-18T02:30:56.227Z,64.64
2023-04-18T02:31:56.287Z,64.66
2023-04-18T02:32:56.317Z,64.77
2023-04-18T02:33:56.330Z,64.80
2023-04-18T02:34:56.322Z,64.81
2023-04-18T02:35:56.339Z,64.93
2023-04-18T02:36:56.338Z,65.20
2023-04-18T02:37:56.368Z,65.22
2023-04-18T02:38:56.372Z,65.29
2023-04-18T02:39:57.159Z,65.38
2023-04-18T02:40:56.463Z,65.28
2023-04-18T02:41:56.540Z,65.09
2023-04-18T02:42:56.483Z,64.83
2023-04-18T02:43:57.178Z,64.54
2023-04-18T02:44:56.572Z,64.25
2023-04-18T02:45:56.744Z,64.15
2023-04-18T02:46:56.798Z,64.06
2023-04-18T02:47:57.703Z,63.96
2023-04-18T02:48:56.868Z,63.88
2023-04-18T02:49:56.959Z,63.72
2023-04-18T02:50:57.025Z,63.77
2023-04-18T02:51:57.707Z,63.77
2023-04-18T02:52:57.110Z,63.69
2023-04-18T02:53:57.180Z,63.85
2023-04-18T02:54:57.220Z,63.90
2023-04-18T02:55:57.680Z,63.87
2023-04-18T02:56:57.354Z,63.93
2023-04-18T02:57:57.447Z,63.95
2023-04-18T02:58:57.464Z,64.00
2023-04-18T02:59:57.565Z,64.02
2023-04-18T03:00:57.684Z,64.06
2023-04-18T03:01:57.758Z,64.16
2023-04-18T03:02:57.971Z,64.08
2023-04-18T03:03:57.831Z,64.08
2023-04-18T03:04:57.886Z,63.91
2023-04-18T03:05:57.943Z,63.77
2023-04-18T03:06:58.021Z,63.70
2023-04-18T03:07:58.112Z,63.72
2023-04-18T03:08:58.200Z,63.78
2023-04-18T03:09:58.252Z,63.80
2023-04-18T03:10:58.327Z,64.22
2023-04-18T03:11:58.387Z,64.53
2023-04-18T03:12:58.420Z,64.81
2023-04-18T03:13:58.470Z,65.09
2023-04-18T03:14:58.536Z,65.29
2023-04-18T03:15:58.713Z,65.58
2023-04-18T03:16:58.688Z,66.00
2023-04-18T03:17:58.807Z,66.12
2023-04-18T03:18:58.853Z,66.07
2023-04-18T03:19:58.926Z,65.95
2023-04-18T03:20:59.011Z,65.78
2023-04-18T03:21:59.091Z,65.78
2023-04-18T03:23:00.156Z,65.82
2023-04-18T03:23:59.249Z,65.72
2023-04-18T03:24:59.330Z,65.56
2023-04-18T03:25:59.420Z,65.49
2023-04-18T03:26:59.508Z,65.54
2023-04-18T03:27:59.581Z,65.68
2023-04-18T03:28:59.665Z,65.88
2023-04-18T03:29:59.720Z,65.92
2023-04-18T03:30:59.823Z,65.79
2023-04-18T03:31:59.908Z,65.64
2023-04-18T03:32:59.961Z,65.62
2023-04-18T03:34:00.031Z,65.53
2023-04-18T03:35:00.086Z,65.35
2023-04-18T03:36:00.148Z,65.28
2023-04-18T03:37:00.209Z,65.19
2023-04-18T03:38:00.232Z,65.06
2023-04-18T03:39:00.360Z,64.82
2023-04-18T03:40:00.416Z,64.74
2023-04-18T03:41:00.497Z,64.60
2023-04-18T03:42:00.538Z,64.57
2023-04-18T03:43:00.528Z,64.64
2023-04-18T03:44:00.586Z,64.67
2023-04-18T03:45:00.566Z,64.55
2023-04-18T03:46:00.632Z,64.46
2023-04-18T03:47:00.632Z,64.43
2023-04-18T03:48:00.688Z,64.43
2023-04-18T03:49:00.663Z,64.33
2023-04-18T03:50:00.697Z,64.15
2023-04-18T03:51:00.802Z,64.18
2023-04-18T03:52:00.860Z,64.24
2023-04-18T03:53:00.910Z,64.05
2023-04-18T03:54:00.980Z,63.80
2023-04-18T03:55:01.045Z,63.65
2023-04-18T03:56:01.134Z,63.68
2023-04-18T03:57:01.195Z,63.76
2023-04-18T03:58:01.249Z,63.67
2023-04-18T03:59:01.299Z,63.72
2023-04-18T04:00:01.371Z,63.85
2023-04-18T04:01:01.490Z,64.01
2023-04-18T04:02:01.690Z,63.94
2023-04-18T04:03:01.887Z,63.84
2023-04-18T04:04:01.765Z,63.60
2023-04-18T04:05:01.909Z,63.39
2023-04-18T04:06:01.933Z,63.20
2023-04-18T04:07:01.872Z,63.02
2023-04-18T04:08:01.955Z,63.16
2023-04-18T04:09:01.921Z,62.99
2023-04-18T04:10:01.937Z,62.95
2023-04-18T04:11:02.041Z,62.90
2023-04-18T04:12:01.980Z,62.93
2023-04-18T04:13:01.980Z,62.90
2023-04-18T04:14:02.017Z,63.03
2023-04-18T04:15:02.037Z,63.16
2023-04-18T04:16:02.081Z,63.24
2023-04-18T04:17:02.088Z,63.26
2023-04-18T04:18:02.198Z,63.29
2023-04-18T04:19:02.256Z,63.37
2023-04-18T04:20:02.296Z,63.06
2023-04-18T04:21:02.324Z,62.94
2023-04-18T04:22:02.431Z,62.72
2023-04-18T04:23:02.495Z,62.45
2023-04-18T04:24:02.588Z,62.35
2023-04-18T04:25:02.643Z,62.40
2023-04-18T04:26:02.713Z,62.52
2023-04-18T04:27:02.809Z,62.65
2023-04-18T04:28:02.868Z,62.42
2023-04-18T04:29:02.904Z,62.35
2023-04-18T04:30:02.953Z,62.43
2023-04-18T04:31:02.994Z,62.43
2023-04-18T04:32:03.100Z,62.37
2023-04-18T04:33:03.074Z,62.10
2023-04-18T04:34:03.104Z,61.86
2023-04-18T04:35:03.107Z,61.69
2023-04-18T04:36:03.131Z,61.58
2023-04-18T04:37:03.142Z,61.60
2023-04-18T04:38:03.150Z,61.56
2023-04-18T04:39:03.182Z,61.48
2023-04-18T04:40:03.202Z,61.66
2023-04-18T04:41:03.205Z,61.71
2023-04-18T04:42:03.215Z,61.73
2023-04-18T04:43:03.221Z,61.92
2023-04-18T04:44:03.258Z,62.32
2023-04-18T04:45:03.347Z,62.95
2023-04-18T04:46:03.323Z,63.31
2023-04-18T04:47:03.296Z,63.92
2023-04-18T04:48:03.392Z,64.34
2023-04-18T04:49:03.295Z,64.77
2023-04-18T04:50:03.300Z,64.73
2023-04-18T04:51:03.339Z,64.67
2023-04-18T04:52:03.344Z,64.40
2023-04-18T04:53:03.371Z,64.46
2023-04-18T04:54:03.372Z,64.43
2023-04-18T04:55:03.401Z,64.46
2023-04-18T04:56:03.410Z,64.39
2023-04-18T04:57:03.482Z,64.10
2023-04-18T04:58:03.450Z,63.71
2023-04-18T04:59:03.447Z,63.47
2023-04-18T05:00:03.471Z,63.13
2023-04-18T05:01:04.222Z,62.96
2023-04-18T05:02:03.576Z,62.88
2023-04-18T05:03:03.692Z,62.98
2023-04-18T05:04:03.706Z,63.16
2023-04-18T05:05:03.562Z,63.18
2023-04-18T05:06:04.175Z,63.12
2023-04-18T05:07:03.568Z,63.17
2023-04-18T05:08:03.571Z,63.16
2023-04-18T05:09:03.631Z,62.87
2023-04-18T05:10:03.602Z,62.53
2023-04-18T05:11:03.611Z,62.24
2023-04-18T05:12:03.637Z,62.01
2023-04-18T05:13:03.636Z,61.96
2023-04-18T05:14:03.671Z,62.09
2023-04-18T05:15:03.681Z,61.98
2023-04-18T05:16:03.681Z,61.93
2023-04-18T05:17:03.720Z,62.34
2023-04-18T05:18:03.738Z,62.55
2023-04-18T05:19:03.757Z,62.33
2023-04-18T05:20:03.725Z,62.73
2023-04-18T05:21:03.753Z,63.03
2023-04-18T05:22:03.761Z,63.22
2023-04-18T05:23:03.826Z,63.50
2023-04-18T05:24:03.861Z,63.15
2023-04-18T05:25:03.898Z,63.83
2023-04-18T05:26:03.959Z,64.00
2023-04-18T05:27:04.031Z,63.93
2023-04-18T05:28:04.103Z,63.92
2023-04-18T05:29:04.177Z,63.68
2023-04-18T05:30:04.252Z,63.49
2023-04-18T05:31:04.360Z,63.32
2023-04-18T05:32:04.353Z,63.30
2023-04-18T05:33:04.438Z,63.24
2023-04-18T05:34:04.491Z,63.29
2023-04-18T05:35:04.602Z,63.17
2023-04-18T05:36:04.596Z,62.91
2023-04-18T05:37:04.702Z,62.67
2023-04-18T05:38:04.644Z,62.42
2023-04-18T05:39:04.674Z,62.35
2023-04-18T05:40:04.708Z,62.42
2023-04-18T05:41:04.722Z,62.26
2023-04-18T05:42:04.742Z,62.14
2023-04-18T05:43:04.750Z,61.93
2023-04-18T05:44:05.921Z,61.72
2023-04-18T05:45:04.818Z,61.50
2023-04-18T05:46:04.838Z,61.40
2023-04-18T05:47:05.485Z,61.45
2023-04-18T05:48:05.289Z,61.12
2023-04-18T05:49:04.863Z,60.88
2023-04-18T05:50:04.872Z,60.61
2023-04-18T05:51:05.708Z,60.46
2023-04-18T05:52:04.907Z,60.12
2023-04-18T05:53:04.905Z,60.01
2023-04-18T05:54:04.940Z,59.75
2023-04-18T05:55:05.007Z,59.44
2023-04-18T05:56:04.911Z,58.99
2023-04-18T05:57:05.009Z,58.74
2023-04-18T05:58:04.965Z,58.46
2023-04-18T05:59:05.070Z,58.23
2023-04-18T06:00:04.952Z,58.35
2023-04-18T06:01:04.954Z,58.61
2023-04-18T06:02:05.756Z,58.31
2023-04-18T06:03:07.880Z,57.97
2023-04-18T06:04:05.867Z,57.99
2023-04-18T06:05:05.296Z,57.82
2023-04-18T06:06:05.018Z,57.68
2023-04-18T06:07:05.024Z,57.46
2023-04-18T06:08:05.246Z,57.39
2023-04-18T06:09:05.015Z,56.94
2023-04-18T06:10:05.027Z,56.65
2023-04-18T06:11:05.711Z,56.56
2023-04-18T06:12:05.063Z,56.61
2023-04-18T06:13:05.004Z,56.99
2023-04-18T06:14:05.019Z,57.21
2023-04-18T06:15:05.015Z,57.22
2023-04-18T06:16:05.050Z,57.00
2023-04-18T06:17:05.008Z,56.74
2023-04-18T06:18:05.067Z,56.52
2023-04-18T06:19:05.065Z,56.61
2023-04-18T06:20:04.993Z,56.88
2023-04-18T06:21:07.722Z,56.44
2023-04-18T06:22:05.006Z,56.40
2023-04-18T06:23:05.017Z,56.74
2023-04-18T06:24:04.980Z,56.78
2023-04-18T06:25:05.039Z,56.57
2023-04-18T06:26:04.974Z,56.48
2023-04-18T06:27:04.995Z,56.63
2023-04-18T06:28:05.219Z,56.76
2023-04-18T06:29:04.987Z,56.65
2023-04-18T06:30:04.978Z,56.68
2023-04-18T06:31:05.071Z,56.14
2023-04-18T06:32:05.824Z,55.92
2023-04-18T06:33:05.124Z,56.23
2023-04-18T06:34:05.125Z,56.02
2023-04-18T06:35:05.071Z,55.76
2023-04-18T06:36:04.998Z,55.89
2023-04-18T06:37:05.023Z,55.71
2023-04-18T06:38:05.090Z,55.52
2023-04-18T06:39:05.009Z,55.20
2023-04-18T06:40:04.973Z,54.60
2023-04-18T06:41:05.001Z,54.40
2023-04-18T06:42:05.217Z,54.03
2023-04-18T06:43:04.931Z,53.79
2023-04-18T06:44:05.004Z,54.13
2023-04-18T06:45:04.916Z,54.02
2023-04-18T06:46:05.047Z,54.09
2023-04-18T06:47:04.912Z,53.71
2023-04-18T06:48:04.948Z,53.23
2023-04-18T06:49:04.989Z,53.00
2023-04-18T06:50:04.917Z,53.05
2023-04-18T06:51:04.838Z,52.62
2023-04-18T06:52:04.908Z,52.39
2023-04-18T06:53:04.870Z,52.55
2023-04-18T06:54:04.877Z,52.30
2023-04-18T06:55:04.895Z,52.02
2023-04-18T06:56:04.970Z,51.83
2023-04-18T06:57:04.993Z,51.50
2023-04-18T06:58:05.063Z,51.25
2023-04-18T06:59:05.070Z,51.35
2023-04-18T07:00:05.093Z,51.47
2023-04-18T07:01:05.094Z,51.41
2023-04-18T07:02:05.232Z,51.58
2023-04-18T07:03:05.382Z,51.53
2023-04-18T07:04:05.149Z,51.73
2023-04-18T07:05:05.153Z,52.43
2023-04-18T07:06:05.035Z,53.05
2023-04-18T07:07:05.012Z,53.06
2023-04-18T07:08:04.979Z,53.20
2023-04-18T07:09:05.244Z,53.42
2023-04-18T07:10:04.973Z,53.93
2023-04-18T07:11:05.082Z,53.76
2023-04-18T07:12:04.960Z,53.79
2023-04-18T07:13:04.928Z,54.09
2023-04-18T07:14:04.971Z,54.09
2023-04-18T07:15:04.917Z,54.34
2023-04-18T07:16:05.809Z,54.97
2023-04-18T07:17:05.026Z,54.98
2023-04-18T07:18:07.808Z,54.88
2023-04-18T07:19:04.900Z,55.10
2023-04-18T07:20:04.874Z,54.93
2023-04-18T07:21:04.872Z,54.64
2023-04-18T07:22:04.886Z,54.87
2023-04-18T07:23:04.903Z,54.11
2023-04-18T07:24:04.867Z,54.09
2023-04-18T07:25:05.641Z,53.67
2023-04-18T07:26:04.868Z,53.98
2023-04-18T07:27:08.867Z,53.81
2023-04-18T07:28:04.893Z,54.33
2023-04-18T07:29:04.874Z,53.82
2023-04-18T07:30:04.973Z,53.69
2023-04-18T07:31:04.848Z,53.57
2023-04-18T07:32:06.216Z,53.81
2023-04-18T07:33:06.912Z,53.39
2023-04-18T07:34:04.789Z,52.71
2023-04-18T07:35:04.777Z,52.24
2023-04-18T07:36:04.800Z,51.96
2023-04-18T07:37:04.832Z,51.53
2023-04-18T07:38:04.786Z,51.32
2023-04-18T07:39:04.877Z,51.30
2023-04-18T07:40:04.759Z,50.98
2023-04-18T07:41:05.935Z,50.66
2023-04-18T07:42:04.788Z,50.49
2023-04-18T07:43:04.874Z,49.82
2023-04-18T07:44:04.907Z,49.19
2023-04-18T07:45:04.810Z,48.43
2023-04-18T07:46:04.804Z,47.96
2023-04-18T07:47:04.792Z,47.26
2023-04-18T07:48:04.849Z,46.28
2023-04-18T07:49:04.834Z,46.92
2023-04-18T07:50:04.833Z,47.41
2023-04-18T07:51:04.819Z,46.69
2023-04-18T07:52:04.965Z,46.21
2023-04-18T07:53:04.979Z,45.12
2023-04-18T07:54:04.979Z,45.34
2023-04-18T07:55:04.925Z,45.45
2023-04-18T07:56:05.073Z,44.73
2023-04-18T07:57:04.982Z,45.36
2023-04-18T07:58:05.002Z,44.94
2023-04-18T07:59:05.087Z,44.56
2023-04-18T08:00:05.019Z,44.85
2023-04-18T08:01:05.034Z,45.69
2023-04-18T08:02:05.195Z,45.79
2023-04-18T08:03:05.229Z,44.98
2023-04-18T08:04:05.277Z,44.61
2023-04-18T08:05:05.182Z,44.40
2023-04-18T08:06:05.103Z,44.17
2023-04-18T08:07:05.162Z,44.75
2023-04-18T08:08:05.124Z,44.78
2023-04-18T08:09:05.131Z,45.19
2023-04-18T08:10:05.108Z,44.72
2023-04-18T08:11:06.761Z,44.76
2023-04-18T08:12:05.736Z,45.50
2023-04-18T08:13:05.754Z,45.33
2023-04-18T08:14:05.268Z,45.29
2023-04-18T08:15:05.335Z,45.27
2023-04-18T08:16:05.270Z,45.07
2023-04-18T08:17:05.224Z,44.96
2023-04-18T08:18:05.286Z,45.03
2023-04-18T08:19:05.224Z,45.15
2023-04-18T08:20:05.238Z,44.62
2023-04-18T08:21:05.242Z,44.47
2023-04-18T08:22:05.204Z,43.63
2023-04-18T08:23:08.701Z,43.17
2023-04-18T08:24:05.133Z,42.83
2023-04-18T08:25:05.858Z,43.00
2023-04-18T08:26:05.068Z,42.78
2023-04-18T08:27:05.052Z,43.44
2023-04-18T08:28:05.011Z,43.71
2023-04-18T08:29:04.939Z,43.65
2023-04-18T08:30:04.996Z,42.90
2023-04-18T08:31:04.852Z,42.27
2023-04-18T08:32:04.897Z,42.30
2023-04-18T08:33:04.875Z,41.36
2023-04-18T08:34:05.179Z,41.50
2023-04-18T08:35:04.671Z,42.00
2023-04-18T08:36:04.744Z,42.09
2023-04-18T08:37:04.640Z,42.53
2023-04-18T08:38:04.523Z,42.09
2023-04-18T08:39:04.503Z,41.45
2023-04-18T08:40:04.411Z,41.09
2023-04-18T08:41:05.398Z,40.44
2023-04-18T08:42:04.304Z,39.75
2023-04-18T08:43:05.251Z,38.86
2023-04-18T08:44:04.732Z,38.10
2023-04-18T08:45:04.220Z,38.69
2023-04-18T08:46:04.210Z,39.08
2023-04-18T08:47:04.095Z,38.59
2023-04-18T08:48:04.109Z,39.01
2023-04-18T08:49:04.837Z,39.49
2023-04-18T08:50:04.079Z,39.15
2023-04-18T08:51:03.952Z,38.52
2023-04-18T08:52:03.919Z,39.59
2023-04-18T08:53:03.905Z,40.03
2023-04-18T08:54:03.894Z,40.86
2023-04-18T08:55:04.038Z,41.23
2023-04-18T08:56:03.999Z,40.69
2023-04-18T08:57:04.083Z,40.83
2023-04-18T08:58:03.881Z,41.25
2023-04-18T08:59:03.859Z,41.10
2023-04-18T09:00:03.869Z,41.41
2023-04-18T09:01:03.891Z,40.45
2023-04-18T09:02:04.841Z,40.45
2023-04-18T09:03:04.164Z,41.24
2023-04-18T09:04:03.905Z,41.55
2023-04-18T09:05:03.906Z,42.35
2023-04-18T09:06:03.929Z,41.87
2023-04-18T09:07:03.943Z,42.25
2023-04-18T09:08:03.908Z,42.22
2023-04-18T09:09:03.938Z,41.80
2023-04-18T09:10:03.907Z,41.06
2023-04-18T09:11:03.913Z,40.58
2023-04-18T09:12:03.891Z,40.49
2023-04-18T09:13:03.939Z,40.35
2023-04-18T09:14:03.876Z,40.01
2023-04-18T09:15:04.017Z,40.02
2023-04-18T09:16:03.877Z,40.39
2023-04-18T09:17:04.022Z,40.55
2023-04-18T09:18:03.883Z,40.91
2023-04-18T09:19:05.747Z,40.98
2023-04-18T09:20:03.833Z,41.03
2023-04-18T09:21:03.805Z,41.19
2023-04-18T09:22:03.762Z,40.29
2023-04-18T09:23:03.702Z,39.19
2023-04-18T09:24:03.647Z,39.20
2023-04-18T09:25:03.742Z,39.21
2023-04-18T09:26:04.156Z,39.62
2023-04-18T09:27:03.506Z,39.81
2023-04-18T09:28:03.481Z,40.14
2023-04-18T09:29:03.439Z,40.58
2023-04-18T09:30:03.401Z,40.54
2023-04-18T09:31:03.377Z,40.31
2023-04-18T09:32:03.298Z,39.90
2023-04-18T09:33:03.244Z,40.08
2023-04-18T09:34:03.171Z,40.80
2023-04-18T09:35:04.606Z,41.20
2023-04-18T09:36:03.105Z,40.80
2023-04-18T09:37:03.077Z,40.46
2023-04-18T09:38:03.062Z,40.19
2023-04-18T09:39:02.968Z,40.43
2023-04-18T09:40:02.925Z,40.53
2023-04-18T09:41:02.909Z,40.32
2023-04-18T09:42:02.833Z,40.51
2023-04-18T09:43:03.755Z,40.70
2023-04-18T09:44:02.756Z,40.54
2023-04-18T09:45:02.715Z,40.56
2023-04-18T09:46:02.811Z,40.46
2023-04-18T09:47:02.774Z,40.55
2023-04-18T09:48:02.599Z,41.88
2023-04-18T09:49:02.550Z,42.43
2023-04-18T09:50:03.274Z,41.77
2023-04-18T09:51:02.479Z,41.21
2023-04-18T09:52:02.515Z,40.52
2023-04-18T09:53:02.515Z,40.49
2023-04-18T09:54:02.536Z,40.79
2023-04-18T09:55:02.523Z,40.36
2023-04-18T09:56:02.530Z,40.50
2023-04-18T09:57:02.488Z,39.95
2023-04-18T09:58:02.510Z,39.98
2023-04-18T09:59:02.464Z,40.07
2023-04-18T10:00:02.490Z,39.90
2023-04-18T10:01:02.455Z,39.95
2023-04-18T10:02:02.523Z,40.42
2023-04-18T10:03:02.564Z,39.77
2023-04-18T10:04:02.511Z,39.38
2023-04-18T10:05:02.561Z,39.16
2023-04-18T10:06:02.486Z,39.35
2023-04-18T10:07:02.360Z,39.05
2023-04-18T10:08:02.387Z,38.76
2023-04-18T10:09:02.349Z,38.87
2023-04-18T10:10:02.371Z,39.50
2023-04-18T10:11:02.364Z,40.07
2023-04-18T10:12:02.354Z,39.61
2023-04-18T10:13:02.360Z,39.80
2023-04-18T10:14:02.299Z,40.01
2023-04-18T10:15:02.340Z,39.96
2023-04-18T10:16:02.403Z,40.12
2023-04-18T10:17:02.440Z,40.40
2023-04-18T10:18:05.094Z,40.09
2023-04-18T10:19:02.295Z,40.20
2023-04-18T10:20:02.268Z,40.10
2023-04-18T10:21:02.194Z,40.08
2023-04-18T10:22:02.139Z,39.25
2023-04-18T10:23:02.090Z,39.67
2023-04-18T10:24:02.130Z,40.11
2023-04-18T10:25:01.974Z,40.42
2023-04-18T10:26:01.896Z,40.57
2023-04-18T10:27:01.812Z,40.36
2023-04-18T10:28:01.787Z,40.33
2023-04-18T10:29:01.712Z,40.66
2023-04-18T10:30:01.660Z,41.65
2023-04-18T10:31:01.770Z,41.50
2023-04-18T10:32:01.525Z,41.14
2023-04-18T10:33:01.495Z,40.89
2023-04-18T10:34:05.331Z,41.28
2023-04-18T10:35:02.376Z,41.07
2023-04-18T10:36:04.918Z,40.87
2023-04-18T10:37:01.287Z,41.40
2023-04-18T10:38:01.268Z,41.25
2023-04-18T10:39:01.222Z,41.55
2023-04-18T10:40:01.318Z,41.59
2023-04-18T10:41:01.068Z,41.51
2023-04-18T10:42:01.000Z,40.85
2023-04-18T10:43:00.948Z,40.38
2023-04-18T10:44:00.937Z,40.08
2023-04-18T10:45:00.842Z,39.36
2023-04-18T10:46:01.127Z,39.45
2023-04-18T10:47:00.798Z,39.09
2023-04-18T10:48:00.781Z,38.49
2023-04-18T10:49:00.601Z,38.82
2023-04-18T10:50:00.562Z,38.67
2023-04-18T10:51:01.356Z,39.56
2023-04-18T10:52:00.456Z,39.47
2023-04-18T10:53:00.365Z,38.54
2023-04-18T10:54:00.337Z,38.43
2023-04-18T10:55:00.800Z,37.04
2023-04-18T10:56:00.216Z,36.87
2023-04-18T10:57:00.121Z,37.37
2023-04-18T10:58:00.074Z,38.54
2023-04-18T10:58:59.992Z,39.52
2023-04-18T10:59:59.962Z,38.56
2023-04-18T11:00:59.885Z,39.05
2023-04-18T11:02:00.138Z,37.80
2023-04-18T11:02:59.986Z,37.41
2023-04-18T11:03:59.852Z,37.89
2023-04-18T11:05:00.579Z,38.10
2023-04-18T11:05:59.787Z,38.01
2023-04-18T11:06:59.692Z,38.02
2023-04-18T11:07:59.721Z,38.37
2023-04-18T11:08:59.788Z,36.95
2023-04-18T11:09:59.676Z,36.76
2023-04-18T11:10:59.636Z,36.94
2023-04-18T11:11:59.652Z,37.53
2023-04-18T11:12:59.690Z,37.71
2023-04-18T11:13:59.682Z,37.26
2023-04-18T11:14:59.579Z,36.84
2023-04-18T11:15:59.799Z,37.60
2023-04-18T11:16:59.559Z,37.13
2023-04-18T11:17:59.567Z,37.43
2023-04-18T11:18:59.480Z,36.89
2023-04-18T11:19:59.473Z,36.53
2023-04-18T11:21:01.533Z,37.08
2023-04-18T11:21:59.457Z,38.48
2023-04-18T11:22:59.428Z,38.28
2023-04-18T11:23:59.414Z,38.09
2023-04-18T11:24:59.421Z,36.97
2023-04-18T11:25:59.429Z,37.84
2023-04-18T11:26:59.424Z,38.21
2023-04-18T11:27:59.379Z,38.12
2023-04-18T11:28:59.438Z,38.34
2023-04-18T11:29:59.399Z,38.56
2023-04-18T11:30:59.387Z,38.26
2023-04-18T11:31:59.832Z,38.53
2023-04-18T11:32:59.560Z,38.53
2023-04-18T11:33:59.371Z,38.02
2023-04-18T11:34:59.407Z,38.55
2023-04-18T11:35:59.509Z,37.98
2023-04-18T11:36:59.514Z,38.19
2023-04-18T11:37:59.438Z,38.21
2023-04-18T11:38:59.515Z,37.97
2023-04-18T11:39:59.453Z,37.63
2023-04-18T11:40:59.481Z,37.08
2023-04-18T11:41:59.495Z,37.52
2023-04-18T11:42:59.459Z,37.45
2023-04-18T11:43:59.554Z,36.33
2023-04-18T11:44:59.487Z,36.39
2023-04-18T11:46:00.430Z,36.31
2023-04-18T11:46:59.430Z,36.17
2023-04-18T11:47:59.448Z,37.14
2023-04-18T11:48:59.320Z,37.18
2023-04-18T11:49:59.260Z,37.20
2023-04-18T11:50:59.222Z,37.47
2023-04-18T11:51:59.224Z,36.89
2023-04-18T11:52:59.110Z,36.62
2023-04-18T11:53:59.059Z,36.54
2023-04-18T11:54:59.017Z,36.21
2023-04-18T11:55:59.076Z,36.52
2023-04-18T11:56:58.904Z,36.44
2023-04-18T11:57:58.893Z,36.09
2023-04-18T11:58:58.860Z,35.54
2023-04-18T11:59:58.829Z,36.11
2023-04-18T12:00:58.875Z,35.77
2023-04-18T12:01:59.043Z,36.12
2023-04-18T12:02:59.076Z,35.94
2023-04-18T12:03:58.922Z,35.18
2023-04-18T12:04:59.320Z,34.53
2023-04-18T12:05:59.371Z,35.06
2023-04-18T12:06:58.713Z,35.16
2023-04-18T12:07:58.670Z,34.62
2023-04-18T12:08:58.639Z,34.19
2023-04-18T12:09:58.993Z,34.20
2023-04-18T12:10:58.576Z,34.23
2023-04-18T12:11:58.790Z,33.65
2023-04-18T12:12:58.638Z,34.69
2023-04-18T12:13:58.542Z,35.20
2023-04-18T12:14:58.481Z,34.65
2023-04-18T12:15:58.516Z,34.75
2023-04-18T12:16:58.485Z,35.04
2023-04-18T12:17:59.406Z,35.36
2023-04-18T12:18:58.325Z,35.77
2023-04-18T12:19:58.284Z,35.95
2023-04-18T12:20:58.149Z,35.35
2023-04-18T12:21:58.155Z,34.43
2023-04-18T12:22:58.015Z,34.48
2023-04-18T12:23:57.947Z,33.72
2023-04-18T12:24:57.969Z,33.41
2023-04-18T12:25:57.816Z,33.36
2023-04-18T12:26:58.085Z,34.59
2023-04-18T12:27:57.689Z,34.99
2023-04-18T12:28:57.639Z,35.19
2023-04-18T12:29:57.710Z,35.25
2023-04-18T12:30:57.579Z,34.67
2023-04-18T12:31:57.677Z,35.11
2023-04-18T12:32:57.466Z,35.20
2023-04-18T12:33:57.351Z,34.75
2023-04-18T12:34:57.316Z,35.49
2023-04-18T12:35:57.247Z,35.08
2023-04-18T12:36:57.213Z,34.78
2023-04-18T12:37:57.149Z,34.32
2023-04-18T12:38:57.814Z,34.49
2023-04-18T12:39:57.315Z,33.46
2023-04-18T12:40:57.272Z,33.58
2023-04-18T12:41:57.269Z,33.43
2023-04-18T12:42:57.332Z,33.66
2023-04-18T12:43:57.194Z,33.42
2023-04-18T12:44:57.988Z,33.95
2023-04-18T12:45:57.327Z,33.55
2023-04-18T12:46:57.535Z,33.58
2023-04-18T12:47:57.808Z,33.92
2023-04-18T12:48:57.778Z,33.78
2023-04-18T12:49:57.000Z,33.80
2023-04-18T12:50:57.789Z,33.56
2023-04-18T12:51:57.130Z,33.89
2023-04-18T12:52:57.175Z,33.86